sensor_id;sensor_type;location;lat;lon;timestamp;P1;durP1;ratioP1;P2;durP2;ratioP2
9720;SDS011;4899;42.644;23.366;2023-04-06T00:01:29;7.47;;;5.93;;
9720;SDS011;4899;42.644;23.366;2023-04-06T00:03:55;7.80;;;7.00;;
9720;SDS011;4899;42.644;23.366;2023-04-06T00:06:20;7.53;;;6.47;;
9720;SDS011;4899;42.644;23.366;2023-04-06T00:08:46;8.80;;;7.47;;
9720;SDS011;4899;42.644;23.366;2023-04-06T00:11:12;7.97;;;6.53;;
9720;SDS011;4899;42.644;23.366;2023-04-06T00:13:37;7.77;;;7.03;;
9720;SDS011;4899;42.644;23.366;2023-04-06T00:16:03;9.27;;;7.33;;
9720;SDS011;4899;42.644;23.366;2023-04-06T00:18:30;6.50;;;5.90;;
9720;SDS011;4899;42.644;23.366;2023-04-06T00:20:56;9.10;;;7.20;;
9720;SDS011;4899;42.644;23.366;2023-04-06T00:23:22;8.83;;;7.33;;
9720;SDS011;4899;42.644;23.366;2023-04-06T00:25:47;7.40;;;6.13;;
9720;SDS011;4899;42.644;23.366;2023-04-06T00:28:14;6.90;;;6.20;;
9720;SDS011;4899;42.644;23.366;2023-04-06T00:30:40;8.33;;;7.53;;
9720;SDS011;4899;42.644;23.366;2023-04-06T00:33:05;8.63;;;7.73;;
9720;SDS011;4899;42.644;23.366;2023-04-06T00:35:31;8.10;;;6.73;;
9720;SDS011;4899;42.644;23.366;2023-04-06T00:37:56;7.40;;;6.63;;
9720;SDS011;4899;42.644;23.366;2023-04-06T00:40:22;7.20;;;6.50;;
9720;SDS011;4899;42.644;23.366;2023-04-06T00:42:48;7.33;;;6.17;;
9720;SDS011;4899;42.644;23.366;2023-04-06T00:45:13;7.13;;;6.53;;
9720;SDS011;4899;42.644;23.366;2023-04-06T00:47:38;7.43;;;6.73;;
9720;SDS011;4899;42.644;23.366;2023-04-06T00:50:04;10.80;;;7.33;;
9720;SDS011;4899;42.644;23.366;2023-04-06T00:52:30;6.53;;;5.93;;
9720;SDS011;4899;42.644;23.366;2023-04-06T00:54:56;8.20;;;6.63;;
9720;SDS011;4899;42.644;23.366;2023-04-06T00:57:21;6.07;;;5.27;;
9720;SDS011;4899;42.644;23.366;2023-04-06T00:59:47;6.93;;;6.23;;
9720;SDS011;4899;42.644;23.366;2023-04-06T01:02:12;7.07;;;5.93;;
9720;SDS011;4899;42.644;23.366;2023-04-06T01:04:38;6.40;;;5.80;;
9720;SDS011;4899;42.644;23.366;2023-04-06T01:07:03;6.73;;;5.97;;
9720;SDS011;4899;42.644;23.366;2023-04-06T01:09:29;6.90;;;6.30;;
9720;SDS011;4899;42.644;23.366;2023-04-06T01:11:55;7.40;;;6.70;;
9720;SDS011;4899;42.644;23.366;2023-04-06T01:14:22;8.33;;;7.50;;
9720;SDS011;4899;42.644;23.366;2023-04-06T01:16:48;6.93;;;6.23;;
9720;SDS011;4899;42.644;23.366;2023-04-06T01:19:14;6.97;;;6.23;;
9720;SDS011;4899;42.644;23.366;2023-04-06T01:21:40;7.50;;;6.20;;
9720;SDS011;4899;42.644;23.366;2023-04-06T01:24:06;7.20;;;6.50;;
9720;SDS011;4899;42.644;23.366;2023-04-06T01:26:33;7.47;;;6.77;;
9720;SDS011;4899;42.644;23.366;2023-04-06T01:29:00;7.77;;;6.57;;
9720;SDS011;4899;42.644;23.366;2023-04-06T01:31:27;6.47;;;5.87;;
9720;SDS011;4899;42.644;23.366;2023-04-06T01:33:53;7.53;;;5.93;;
9720;SDS011;4899;42.644;23.366;2023-04-06T01:36:19;7.17;;;6.57;;
9720;SDS011;4899;42.644;23.366;2023-04-06T01:38:45;5.70;;;5.13;;
9720;SDS011;4899;42.644;23.366;2023-04-06T01:41:11;7.57;;;6.87;;
9720;SDS011;4899;42.644;23.366;2023-04-06T01:43:36;7.40;;;6.67;;
9720;SDS011;4899;42.644;23.366;2023-04-06T01:46:02;7.67;;;6.80;;
9720;SDS011;4899;42.644;23.366;2023-04-06T01:48:28;7.67;;;6.90;;
9720;SDS011;4899;42.644;23.366;2023-04-06T01:50:54;8.13;;;7.33;;
9720;SDS011;4899;42.644;23.366;2023-04-06T01:53:19;10.93;;;8.33;;
9720;SDS011;4899;42.644;23.366;2023-04-06T01:55:45;6.77;;;6.07;;
9720;SDS011;4899;42.644;23.366;2023-04-06T01:58:11;6.47;;;5.50;;
9720;SDS011;4899;42.644;23.366;2023-04-06T02:00:37;7.37;;;6.67;;
9720;SDS011;4899;42.644;23.366;2023-04-06T02:03:02;7.37;;;6.67;;
9720;SDS011;4899;42.644;23.366;2023-04-06T02:05:29;7.93;;;6.70;;
9720;SDS011;4899;42.644;23.366;2023-04-06T02:07:55;7.13;;;6.13;;
9720;SDS011;4899;42.644;23.366;2023-04-06T02:10:21;6.93;;;5.97;;
9720;SDS011;4899;42.644;23.366;2023-04-06T02:12:47;6.70;;;6.00;;
9720;SDS011;4899;42.644;23.366;2023-04-06T02:15:14;7.20;;;6.50;;
9720;SDS011;4899;42.644;23.366;2023-04-06T02:17:40;8.13;;;6.80;;
9720;SDS011;4899;42.644;23.366;2023-04-06T02:20:07;7.37;;;6.67;;
9720;SDS011;4899;42.644;23.366;2023-04-06T02:22:33;7.43;;;6.73;;
9720;SDS011;4899;42.644;23.366;2023-04-06T02:24:58;7.23;;;6.33;;
9720;SDS011;4899;42.644;23.366;2023-04-06T02:27:24;6.50;;;5.93;;
9720;SDS011;4899;42.644;23.366;2023-04-06T02:29:49;6.43;;;5.83;;
9720;SDS011;4899;42.644;23.366;2023-04-06T02:32:15;6.97;;;6.37;;
9720;SDS011;4899;42.644;23.366;2023-04-06T02:34:40;6.73;;;5.40;;
9720;SDS011;4899;42.644;23.366;2023-04-06T02:37:06;6.70;;;5.77;;
9720;SDS011;4899;42.644;23.366;2023-04-06T02:39:31;7.23;;;6.10;;
9720;SDS011;4899;42.644;23.366;2023-04-06T02:41:57;6.70;;;6.00;;
9720;SDS011;4899;42.644;23.366;2023-04-06T02:44:22;7.17;;;6.47;;
9720;SDS011;4899;42.644;23.366;2023-04-06T02:46:49;6.27;;;5.67;;
9720;SDS011;4899;42.644;23.366;2023-04-06T02:49:15;6.47;;;5.90;;
9720;SDS011;4899;42.644;23.366;2023-04-06T02:51:40;6.50;;;5.80;;
9720;SDS011;4899;42.644;23.366;2023-04-06T02:54:06;7.17;;;6.27;;
9720;SDS011;4899;42.644;23.366;2023-04-06T02:56:31;8.30;;;5.93;;
9720;SDS011;4899;42.644;23.366;2023-04-06T02:58:57;8.60;;;7.23;;
9720;SDS011;4899;42.644;23.366;2023-04-06T03:01:22;8.50;;;6.80;;
9720;SDS011;4899;42.644;23.366;2023-04-06T03:03:48;6.80;;;6.07;;
9720;SDS011;4899;42.644;23.366;2023-04-06T03:06:13;8.90;;;6.87;;
9720;SDS011;4899;42.644;23.366;2023-04-06T03:08:39;9.63;;;6.37;;
9720;SDS011;4899;42.644;23.366;2023-04-06T03:11:04;7.60;;;6.07;;
9720;SDS011;4899;42.644;23.366;2023-04-06T03:13:30;6.47;;;5.73;;
9720;SDS011;4899;42.644;23.366;2023-04-06T03:15:56;7.63;;;6.83;;
9720;SDS011;4899;42.644;23.366;2023-04-06T03:18:22;8.37;;;7.57;;
9720;SDS011;4899;42.644;23.366;2023-04-06T03:20:48;9.07;;;6.90;;
9720;SDS011;4899;42.644;23.366;2023-04-06T03:23:14;7.07;;;6.37;;
9720;SDS011;4899;42.644;23.366;2023-04-06T03:25:39;7.13;;;6.43;;
9720;SDS011;4899;42.644;23.366;2023-04-06T03:28:06;7.03;;;6.30;;
9720;SDS011;4899;42.644;23.366;2023-04-06T03:30:31;8.07;;;7.27;;
9720;SDS011;4899;42.644;23.366;2023-04-06T03:32:57;7.23;;;6.53;;
9720;SDS011;4899;42.644;23.366;2023-04-06T03:35:22;8.10;;;6.20;;
9720;SDS011;4899;42.644;23.366;2023-04-06T03:37:50;6.20;;;5.60;;
9720;SDS011;4899;42.644;23.366;2023-04-06T03:40:16;7.07;;;5.87;;
9720;SDS011;4899;42.644;23.366;2023-04-06T03:42:41;6.60;;;5.90;;
9720;SDS011;4899;42.644;23.366;2023-04-06T03:45:07;7.10;;;6.30;;
9720;SDS011;4899;42.644;23.366;2023-04-06T03:47:33;6.70;;;6.10;;
9720;SDS011;4899;42.644;23.366;2023-04-06T03:49:58;5.73;;;5.17;;
9720;SDS011;4899;42.644;23.366;2023-04-06T03:52:24;5.83;;;5.27;;
9720;SDS011;4899;42.644;23.366;2023-04-06T03:54:50;5.87;;;5.23;;
9720;SDS011;4899;42.644;23.366;2023-04-06T03:57:15;7.67;;;5.70;;
9720;SDS011;4899;42.644;23.366;2023-04-06T03:59:41;5.73;;;5.13;;
9720;SDS011;4899;42.644;23.366;2023-04-06T04:02:06;7.00;;;5.20;;
9720;SDS011;4899;42.644;23.366;2023-04-06T04:04:32;6.63;;;5.23;;
9720;SDS011;4899;42.644;23.366;2023-04-06T04:06:57;4.60;;;4.20;;
9720;SDS011;4899;42.644;23.366;2023-04-06T04:09:23;7.00;;;4.97;;
9720;SDS011;4899;42.644;23.366;2023-04-06T04:11:48;6.50;;;5.90;;
9720;SDS011;4899;42.644;23.366;2023-04-06T04:14:13;6.37;;;5.87;;
9720;SDS011;4899;42.644;23.366;2023-04-06T04:16:39;6.33;;;5.73;;
9720;SDS011;4899;42.644;23.366;2023-04-06T04:19:06;5.23;;;4.80;;
9720;SDS011;4899;42.644;23.366;2023-04-06T04:21:31;6.20;;;5.60;;
9720;SDS011;4899;42.644;23.366;2023-04-06T04:23:57;6.23;;;5.60;;
9720;SDS011;4899;42.644;23.366;2023-04-06T04:26:22;5.93;;;5.33;;
9720;SDS011;4899;42.644;23.366;2023-04-06T04:28:48;6.07;;;5.37;;
9720;SDS011;4899;42.644;23.366;2023-04-06T04:31:13;6.67;;;5.57;;
9720;SDS011;4899;42.644;23.366;2023-04-06T04:33:39;7.40;;;5.83;;
9720;SDS011;4899;42.644;23.366;2023-04-06T04:36:05;6.43;;;5.33;;
9720;SDS011;4899;42.644;23.366;2023-04-06T04:38:30;7.13;;;5.80;;
9720;SDS011;4899;42.644;23.366;2023-04-06T04:40:56;7.70;;;6.23;;
9720;SDS011;4899;42.644;23.366;2023-04-06T04:43:21;6.13;;;5.63;;
9720;SDS011;4899;42.644;23.366;2023-04-06T04:45:47;7.70;;;6.13;;
9720;SDS011;4899;42.644;23.366;2023-04-06T04:48:13;7.60;;;6.07;;
9720;SDS011;4899;42.644;23.366;2023-04-06T04:50:39;5.73;;;5.20;;
9720;SDS011;4899;42.644;23.366;2023-04-06T04:53:04;6.60;;;5.93;;
9720;SDS011;4899;42.644;23.366;2023-04-06T04:55:31;5.93;;;5.33;;
9720;SDS011;4899;42.644;23.366;2023-04-06T04:57:57;6.80;;;5.87;;
9720;SDS011;4899;42.644;23.366;2023-04-06T05:00:22;5.60;;;5.03;;
9720;SDS011;4899;42.644;23.366;2023-04-06T05:02:48;6.37;;;5.77;;
9720;SDS011;4899;42.644;23.366;2023-04-06T05:05:13;6.00;;;5.43;;
9720;SDS011;4899;42.644;23.366;2023-04-06T05:07:39;6.90;;;5.53;;
9720;SDS011;4899;42.644;23.366;2023-04-06T05:10:05;7.17;;;6.47;;
9720;SDS011;4899;42.644;23.366;2023-04-06T05:12:30;6.70;;;6.10;;
9720;SDS011;4899;42.644;23.366;2023-04-06T05:14:56;7.17;;;6.47;;
9720;SDS011;4899;42.644;23.366;2023-04-06T05:17:22;6.27;;;5.43;;
9720;SDS011;4899;42.644;23.366;2023-04-06T05:19:47;8.33;;;6.60;;
9720;SDS011;4899;42.644;23.366;2023-04-06T05:22:13;8.37;;;6.73;;
9720;SDS011;4899;42.644;23.366;2023-04-06T05:24:41;7.57;;;6.87;;
9720;SDS011;4899;42.644;23.366;2023-04-06T05:27:06;8.93;;;6.77;;
9720;SDS011;4899;42.644;23.366;2023-04-06T05:29:32;7.43;;;6.37;;
9720;SDS011;4899;42.644;23.366;2023-04-06T05:31:58;7.00;;;6.30;;
9720;SDS011;4899;42.644;23.366;2023-04-06T05:34:24;7.67;;;6.50;;
9720;SDS011;4899;42.644;23.366;2023-04-06T05:36:49;7.93;;;7.23;;
9720;SDS011;4899;42.644;23.366;2023-04-06T05:39:15;9.20;;;6.50;;
9720;SDS011;4899;42.644;23.366;2023-04-06T05:41:41;8.50;;;7.63;;
9720;SDS011;4899;42.644;23.366;2023-04-06T05:44:06;15.47;;;8.87;;
9720;SDS011;4899;42.644;23.366;2023-04-06T05:46:32;8.37;;;7.57;;
9720;SDS011;4899;42.644;23.366;2023-04-06T05:48:57;10.37;;;8.10;;
9720;SDS011;4899;42.644;23.366;2023-04-06T05:51:23;11.27;;;8.60;;
9720;SDS011;4899;42.644;23.366;2023-04-06T05:53:48;9.43;;;8.57;;
9720;SDS011;4899;42.644;23.366;2023-04-06T05:56:14;8.20;;;7.40;;
9720;SDS011;4899;42.644;23.366;2023-04-06T05:58:39;9.57;;;8.57;;
9720;SDS011;4899;42.644;23.366;2023-04-06T06:01:04;9.50;;;8.50;;
9720;SDS011;4899;42.644;23.366;2023-04-06T06:03:30;9.80;;;8.67;;
9720;SDS011;4899;42.644;23.366;2023-04-06T06:05:59;10.63;;;8.40;;
9720;SDS011;4899;42.644;23.366;2023-04-06T06:08:29;9.17;;;8.27;;
9720;SDS011;4899;42.644;23.366;2023-04-06T06:10:55;9.50;;;8.53;;
9720;SDS011;4899;42.644;23.366;2023-04-06T06:13:21;10.30;;;8.87;;
9720;SDS011;4899;42.644;23.366;2023-04-06T06:15:47;8.20;;;7.33;;
9720;SDS011;4899;42.644;23.366;2023-04-06T06:18:13;9.20;;;7.60;;
9720;SDS011;4899;42.644;23.366;2023-04-06T06:20:38;10.00;;;9.00;;
9720;SDS011;4899;42.644;23.366;2023-04-06T06:23:04;8.57;;;6.87;;
9720;SDS011;4899;42.644;23.366;2023-04-06T06:25:29;8.90;;;7.83;;
9720;SDS011;4899;42.644;23.366;2023-04-06T06:27:58;8.53;;;7.63;;
9720;SDS011;4899;42.644;23.366;2023-04-06T06:30:24;8.40;;;7.60;;
9720;SDS011;4899;42.644;23.366;2023-04-06T06:32:50;8.97;;;8.07;;
9720;SDS011;4899;42.644;23.366;2023-04-06T06:35:15;7.67;;;6.87;;
9720;SDS011;4899;42.644;23.366;2023-04-06T06:37:41;7.37;;;6.67;;
9720;SDS011;4899;42.644;23.366;2023-04-06T06:40:07;11.97;;;10.17;;
9720;SDS011;4899;42.644;23.366;2023-04-06T06:42:34;11.00;;;9.73;;
9720;SDS011;4899;42.644;23.366;2023-04-06T06:44:59;9.37;;;8.47;;
9720;SDS011;4899;42.644;23.366;2023-04-06T06:47:25;9.03;;;7.70;;
9720;SDS011;4899;42.644;23.366;2023-04-06T06:49:51;8.60;;;7.70;;
9720;SDS011;4899;42.644;23.366;2023-04-06T06:52:18;9.57;;;8.63;;
9720;SDS011;4899;42.644;23.366;2023-04-06T06:54:43;9.97;;;7.77;;
9720;SDS011;4899;42.644;23.366;2023-04-06T06:57:10;13.23;;;9.07;;
9720;SDS011;4899;42.644;23.366;2023-04-06T06:59:35;9.40;;;8.07;;
9720;SDS011;4899;42.644;23.366;2023-04-06T07:02:01;10.13;;;9.13;;
9720;SDS011;4899;42.644;23.366;2023-04-06T07:04:26;9.00;;;8.07;;
9720;SDS011;4899;42.644;23.366;2023-04-06T07:06:52;10.03;;;8.13;;
9720;SDS011;4899;42.644;23.366;2023-04-06T07:09:18;9.40;;;8.43;;
9720;SDS011;4899;42.644;23.366;2023-04-06T07:11:43;9.83;;;8.23;;
9720;SDS011;4899;42.644;23.366;2023-04-06T07:14:09;9.97;;;8.67;;
9720;SDS011;4899;42.644;23.366;2023-04-06T07:16:34;13.77;;;9.90;;
9720;SDS011;4899;42.644;23.366;2023-04-06T07:19:00;8.87;;;7.17;;
9720;SDS011;4899;42.644;23.366;2023-04-06T07:21:25;13.13;;;10.03;;
9720;SDS011;4899;42.644;23.366;2023-04-06T07:23:51;10.50;;;8.63;;
9720;SDS011;4899;42.644;23.366;2023-04-06T07:26:17;15.60;;;9.93;;
9720;SDS011;4899;42.644;23.366;2023-04-06T07:28:42;7.97;;;7.17;;
9720;SDS011;4899;42.644;23.366;2023-04-06T07:31:08;8.47;;;7.53;;
9720;SDS011;4899;42.644;23.366;2023-04-06T07:33:34;7.13;;;6.47;;
9720;SDS011;4899;42.644;23.366;2023-04-06T07:35:59;9.30;;;8.37;;
9720;SDS011;4899;42.644;23.366;2023-04-06T07:38:25;10.80;;;8.43;;
9720;SDS011;4899;42.644;23.366;2023-04-06T07:40:50;7.97;;;7.17;;
9720;SDS011;4899;42.644;23.366;2023-04-06T07:43:16;9.30;;;8.27;;
9720;SDS011;4899;42.644;23.366;2023-04-06T07:45:41;10.80;;;8.07;;
9720;SDS011;4899;42.644;23.366;2023-04-06T07:48:07;11.03;;;9.07;;
9720;SDS011;4899;42.644;23.366;2023-04-06T07:50:32;9.83;;;8.83;;
9720;SDS011;4899;42.644;23.366;2023-04-06T07:52:58;9.40;;;8.50;;
9720;SDS011;4899;42.644;23.366;2023-04-06T07:55:23;10.40;;;9.07;;
9720;SDS011;4899;42.644;23.366;2023-04-06T07:57:49;11.00;;;9.57;;
9720;SDS011;4899;42.644;23.366;2023-04-06T08:00:15;12.80;;;9.30;;
9720;SDS011;4899;42.644;23.366;2023-04-06T08:02:41;9.93;;;8.93;;
9720;SDS011;4899;42.644;23.366;2023-04-06T08:05:06;9.90;;;8.93;;
9720;SDS011;4899;42.644;23.366;2023-04-06T08:07:32;9.47;;;7.83;;
9720;SDS011;4899;42.644;23.366;2023-04-06T08:09:58;10.13;;;9.13;;
9720;SDS011;4899;42.644;23.366;2023-04-06T08:12:23;12.27;;;10.00;;
9720;SDS011;4899;42.644;23.366;2023-04-06T08:14:49;8.97;;;8.03;;
9720;SDS011;4899;42.644;23.366;2023-04-06T08:17:14;9.07;;;8.13;;
9720;SDS011;4899;42.644;23.366;2023-04-06T08:19:42;9.90;;;8.80;;
9720;SDS011;4899;42.644;23.366;2023-04-06T08:22:09;9.63;;;8.63;;
9720;SDS011;4899;42.644;23.366;2023-04-06T08:24:34;8.97;;;8.07;;
9720;SDS011;4899;42.644;23.366;2023-04-06T08:27:00;10.03;;;8.80;;
9720;SDS011;4899;42.644;23.366;2023-04-06T08:29:25;9.77;;;8.77;;
9720;SDS011;4899;42.644;23.366;2023-04-06T08:31:51;9.57;;;6.97;;
9720;SDS011;4899;42.644;23.366;2023-04-06T08:34:16;12.87;;;9.40;;
9720;SDS011;4899;42.644;23.366;2023-04-06T08:36:42;9.03;;;8.20;;
9720;SDS011;4899;42.644;23.366;2023-04-06T08:39:07;8.90;;;8.00;;
9720;SDS011;4899;42.644;23.366;2023-04-06T08:41:33;9.50;;;8.50;;
9720;SDS011;4899;42.644;23.366;2023-04-06T08:44:00;9.17;;;8.17;;
9720;SDS011;4899;42.644;23.366;2023-04-06T08:46:28;6.27;;;5.70;;
9720;SDS011;4899;42.644;23.366;2023-04-06T08:48:56;9.20;;;7.10;;
9720;SDS011;4899;42.644;23.366;2023-04-06T08:51:24;6.70;;;5.40;;
9720;SDS011;4899;42.644;23.366;2023-04-06T08:53:56;6.93;;;6.33;;
9720;SDS011;4899;42.644;23.366;2023-04-06T08:56:23;6.73;;;5.87;;
9720;SDS011;4899;42.644;23.366;2023-04-06T08:58:50;7.27;;;6.53;;
9720;SDS011;4899;42.644;23.366;2023-04-06T09:01:20;6.97;;;6.10;;
9720;SDS011;4899;42.644;23.366;2023-04-06T09:03:48;6.97;;;6.33;;
9720;SDS011;4899;42.644;23.366;2023-04-06T09:06:15;7.03;;;6.33;;
9720;SDS011;4899;42.644;23.366;2023-04-06T09:08:41;6.77;;;6.17;;
9720;SDS011;4899;42.644;23.366;2023-04-06T09:11:07;7.53;;;6.77;;
9720;SDS011;4899;42.644;23.366;2023-04-06T09:16:18;7.57;;;6.77;;
9720;SDS011;4899;42.644;23.366;2023-04-06T09:18:44;8.80;;;8.00;;
9720;SDS011;4899;42.644;23.366;2023-04-06T09:21:10;7.57;;;6.83;;
9720;SDS011;4899;42.644;23.366;2023-04-06T09:23:37;7.23;;;6.60;;
9720;SDS011;4899;42.644;23.366;2023-04-06T09:26:07;7.30;;;6.60;;
9720;SDS011;4899;42.644;23.366;2023-04-06T09:29:08;8.80;;;7.90;;
9720;SDS011;4899;42.644;23.366;2023-04-06T09:31:28;8.17;;;7.37;;
9720;SDS011;4899;42.644;23.366;2023-04-06T09:33:56;9.90;;;8.57;;
9720;SDS011;4899;42.644;23.366;2023-04-06T09:36:33;9.57;;;8.30;;
9720;SDS011;4899;42.644;23.366;2023-04-06T09:39:01;7.13;;;6.43;;
9720;SDS011;4899;42.644;23.366;2023-04-06T09:41:28;6.13;;;5.63;;
9720;SDS011;4899;42.644;23.366;2023-04-06T09:44:04;8.23;;;7.43;;
9720;SDS011;4899;42.644;23.366;2023-04-06T09:46:39;8.23;;;7.27;;
9720;SDS011;4899;42.644;23.366;2023-04-06T09:49:07;7.43;;;6.73;;
9720;SDS011;4899;42.644;23.366;2023-04-06T09:51:39;7.53;;;6.80;;
9720;SDS011;4899;42.644;23.366;2023-04-06T09:54:09;6.90;;;6.20;;
9720;SDS011;4899;42.644;23.366;2023-04-06T09:56:38;7.30;;;6.70;;
9720;SDS011;4899;42.644;23.366;2023-04-06T09:59:14;8.17;;;7.13;;
9720;SDS011;4899;42.644;23.366;2023-04-06T10:02:02;7.30;;;6.70;;
9720;SDS011;4899;42.644;23.366;2023-04-06T10:04:43;6.80;;;6.20;;
9720;SDS011;4899;42.644;23.366;2023-04-06T10:07:21;8.43;;;6.23;;
9720;SDS011;4899;42.644;23.366;2023-04-06T10:09:48;8.97;;;6.50;;
9720;SDS011;4899;42.644;23.366;2023-04-06T10:12:15;10.23;;;6.07;;
9720;SDS011;4899;42.644;23.366;2023-04-06T10:14:41;5.47;;;4.97;;
9720;SDS011;4899;42.644;23.366;2023-04-06T10:17:08;7.43;;;6.73;;
9720;SDS011;4899;42.644;23.366;2023-04-06T10:19:39;8.07;;;6.63;;
9720;SDS011;4899;42.644;23.366;2023-04-06T10:22:14;6.10;;;5.60;;
9720;SDS011;4899;42.644;23.366;2023-04-06T10:24:44;7.70;;;6.93;;
9720;SDS011;4899;42.644;23.366;2023-04-06T10:27:10;6.83;;;6.17;;
9720;SDS011;4899;42.644;23.366;2023-04-06T10:29:45;6.40;;;5.83;;
9720;SDS011;4899;42.644;23.366;2023-04-06T10:32:13;7.57;;;6.87;;
9720;SDS011;4899;42.644;23.366;2023-04-06T10:34:39;8.90;;;7.60;;
9720;SDS011;4899;42.644;23.366;2023-04-06T10:37:12;7.97;;;7.17;;
9720;SDS011;4899;42.644;23.366;2023-04-06T10:39:47;10.37;;;8.10;;
9720;SDS011;4899;42.644;23.366;2023-04-06T10:42:23;7.53;;;6.83;;
9720;SDS011;4899;42.644;23.366;2023-04-06T10:44:50;7.67;;;6.97;;
9720;SDS011;4899;42.644;23.366;2023-04-06T10:47:16;7.50;;;6.70;;
9720;SDS011;4899;42.644;23.366;2023-04-06T10:49:43;7.20;;;6.50;;
9720;SDS011;4899;42.644;23.366;2023-04-06T10:52:10;8.13;;;7.33;;
9720;SDS011;4899;42.644;23.366;2023-04-06T10:54:40;7.90;;;7.20;;
9720;SDS011;4899;42.644;23.366;2023-04-06T10:57:09;7.27;;;6.57;;
9720;SDS011;4899;42.644;23.366;2023-04-06T10:59:35;7.70;;;7.00;;
9720;SDS011;4899;42.644;23.366;2023-04-06T11:02:00;8.40;;;7.53;;
9720;SDS011;4899;42.644;23.366;2023-04-06T11:04:26;8.47;;;7.60;;
9720;SDS011;4899;42.644;23.366;2023-04-06T11:06:52;8.27;;;7.43;;
9720;SDS011;4899;42.644;23.366;2023-04-06T11:09:27;8.57;;;7.40;;
9720;SDS011;4899;42.644;23.366;2023-04-06T11:11:53;7.60;;;6.90;;
9720;SDS011;4899;42.644;23.366;2023-04-06T11:14:21;8.23;;;7.47;;
9720;SDS011;4899;42.644;23.366;2023-04-06T11:16:47;8.50;;;7.70;;
9720;SDS011;4899;42.644;23.366;2023-04-06T11:19:15;8.17;;;7.37;;
9720;SDS011;4899;42.644;23.366;2023-04-06T11:21:41;7.87;;;7.27;;
9720;SDS011;4899;42.644;23.366;2023-04-06T11:24:15;7.03;;;6.43;;
9720;SDS011;4899;42.644;23.366;2023-04-06T11:26:47;7.87;;;7.17;;
9720;SDS011;4899;42.644;23.366;2023-04-06T11:29:20;8.70;;;8.00;;
9720;SDS011;4899;42.644;23.366;2023-04-06T11:32:04;7.87;;;7.17;;
9720;SDS011;4899;42.644;23.366;2023-04-06T11:34:36;8.43;;;7.60;;
9720;SDS011;4899;42.644;23.366;2023-04-06T11:37:04;8.97;;;8.17;;
9720;SDS011;4899;42.644;23.366;2023-04-06T11:39:53;8.10;;;7.40;;
9720;SDS011;4899;42.644;23.366;2023-04-06T11:42:28;8.40;;;7.47;;
9720;SDS011;4899;42.644;23.366;2023-04-06T11:44:56;8.43;;;7.67;;
9720;SDS011;4899;42.644;23.366;2023-04-06T11:47:29;7.70;;;7.00;;
9720;SDS011;4899;42.644;23.366;2023-04-06T11:50:05;8.27;;;7.57;;
9720;SDS011;4899;42.644;23.366;2023-04-06T11:52:35;12.27;;;9.50;;
9720;SDS011;4899;42.644;23.366;2023-04-06T11:57:35;7.40;;;6.77;;
9720;SDS011;4899;42.644;23.366;2023-04-06T12:00:01;8.60;;;7.67;;
9720;SDS011;4899;42.644;23.366;2023-04-06T12:02:27;7.50;;;6.70;;
9720;SDS011;4899;42.644;23.366;2023-04-06T12:04:53;9.33;;;7.13;;
9720;SDS011;4899;42.644;23.366;2023-04-06T12:07:18;7.70;;;7.00;;
9720;SDS011;4899;42.644;23.366;2023-04-06T12:09:45;7.33;;;6.67;;
9720;SDS011;4899;42.644;23.366;2023-04-06T12:12:10;7.73;;;6.93;;
9720;SDS011;4899;42.644;23.366;2023-04-06T12:14:36;10.17;;;7.10;;
9720;SDS011;4899;42.644;23.366;2023-04-06T12:17:01;7.43;;;6.37;;
9720;SDS011;4899;42.644;23.366;2023-04-06T12:19:27;7.87;;;7.00;;
9720;SDS011;4899;42.644;23.366;2023-04-06T12:21:53;8.10;;;7.30;;
9720;SDS011;4899;42.644;23.366;2023-04-06T12:24:20;13.03;;;8.03;;
9720;SDS011;4899;42.644;23.366;2023-04-06T12:26:46;8.83;;;7.87;;
9720;SDS011;4899;42.644;23.366;2023-04-06T12:29:12;8.60;;;7.83;;
9720;SDS011;4899;42.644;23.366;2023-04-06T12:31:38;8.13;;;7.43;;
9720;SDS011;4899;42.644;23.366;2023-04-06T12:34:06;8.67;;;7.77;;
9720;SDS011;4899;42.644;23.366;2023-04-06T12:36:32;7.57;;;6.73;;
9720;SDS011;4899;42.644;23.366;2023-04-06T12:39:00;7.70;;;7.00;;
9720;SDS011;4899;42.644;23.366;2023-04-06T12:41:27;7.43;;;6.73;;
9720;SDS011;4899;42.644;23.366;2023-04-06T12:43:53;6.97;;;6.37;;
9720;SDS011;4899;42.644;23.366;2023-04-06T12:46:18;7.30;;;6.60;;
9720;SDS011;4899;42.644;23.366;2023-04-06T12:48:45;6.87;;;6.27;;
9720;SDS011;4899;42.644;23.366;2023-04-06T12:51:12;7.63;;;6.83;;
9720;SDS011;4899;42.644;23.366;2023-04-06T12:53:37;7.37;;;6.63;;
9720;SDS011;4899;42.644;23.366;2023-04-06T12:56:12;7.60;;;6.90;;
9720;SDS011;4899;42.644;23.366;2023-04-06T12:58:38;6.63;;;6.13;;
9720;SDS011;4899;42.644;23.366;2023-04-06T13:01:06;7.67;;;6.97;;
9720;SDS011;4899;42.644;23.366;2023-04-06T13:03:32;7.23;;;6.53;;
9720;SDS011;4899;42.644;23.366;2023-04-06T13:05:58;7.03;;;6.13;;
9720;SDS011;4899;42.644;23.366;2023-04-06T13:08:25;7.63;;;6.90;;
9720;SDS011;4899;42.644;23.366;2023-04-06T13:10:51;7.70;;;7.00;;
9720;SDS011;4899;42.644;23.366;2023-04-06T13:13:20;8.33;;;7.53;;
9720;SDS011;4899;42.644;23.366;2023-04-06T13:15:50;8.70;;;7.90;;
9720;SDS011;4899;42.644;23.366;2023-04-06T13:18:16;8.50;;;7.57;;
9720;SDS011;4899;42.644;23.366;2023-04-06T13:20:43;8.43;;;7.47;;
9720;SDS011;4899;42.644;23.366;2023-04-06T13:23:08;7.50;;;6.73;;
9720;SDS011;4899;42.644;23.366;2023-04-06T13:25:34;7.90;;;7.10;;
9720;SDS011;4899;42.644;23.366;2023-04-06T13:27:59;8.10;;;7.30;;
9720;SDS011;4899;42.644;23.366;2023-04-06T13:30:25;8.67;;;7.87;;
9720;SDS011;4899;42.644;23.366;2023-04-06T13:32:52;8.57;;;7.57;;
9720;SDS011;4899;42.644;23.366;2023-04-06T13:35:17;8.80;;;7.47;;
9720;SDS011;4899;42.644;23.366;2023-04-06T13:37:43;8.67;;;7.77;;
9720;SDS011;4899;42.644;23.366;2023-04-06T13:40:09;9.80;;;8.80;;
9720;SDS011;4899;42.644;23.366;2023-04-06T13:42:38;8.63;;;7.73;;
9720;SDS011;4899;42.644;23.366;2023-04-06T13:45:06;8.53;;;7.53;;
9720;SDS011;4899;42.644;23.366;2023-04-06T13:47:31;9.13;;;7.10;;
9720;SDS011;4899;42.644;23.366;2023-04-06T13:49:57;8.10;;;7.30;;
9720;SDS011;4899;42.644;23.366;2023-04-06T13:52:23;6.63;;;6.07;;
9720;SDS011;4899;42.644;23.366;2023-04-06T13:54:49;6.73;;;6.13;;
9720;SDS011;4899;42.644;23.366;2023-04-06T13:57:17;6.97;;;6.33;;
9720;SDS011;4899;42.644;23.366;2023-04-06T13:59:42;6.50;;;5.90;;
9720;SDS011;4899;42.644;23.366;2023-04-06T14:02:08;8.37;;;6.33;;
9720;SDS011;4899;42.644;23.366;2023-04-06T14:04:35;6.50;;;6.00;;
9720;SDS011;4899;42.644;23.366;2023-04-06T14:07:01;6.17;;;5.63;;
9720;SDS011;4899;42.644;23.366;2023-04-06T14:09:27;7.20;;;6.50;;
9720;SDS011;4899;42.644;23.366;2023-04-06T14:11:53;7.80;;;7.10;;
9720;SDS011;4899;42.644;23.366;2023-04-06T14:14:19;8.70;;;6.43;;
9720;SDS011;4899;42.644;23.366;2023-04-06T14:16:46;8.30;;;6.37;;
9720;SDS011;4899;42.644;23.366;2023-04-06T14:19:13;7.03;;;6.43;;
9720;SDS011;4899;42.644;23.366;2023-04-06T14:21:44;7.37;;;6.77;;
9720;SDS011;4899;42.644;23.366;2023-04-06T14:24:11;7.13;;;6.53;;
9720;SDS011;4899;42.644;23.366;2023-04-06T14:26:39;7.57;;;6.80;;
9720;SDS011;4899;42.644;23.366;2023-04-06T14:29:06;7.50;;;6.80;;
9720;SDS011;4899;42.644;23.366;2023-04-06T14:31:32;6.90;;;6.23;;
9720;SDS011;4899;42.644;23.366;2023-04-06T14:34:00;9.60;;;6.53;;
9720;SDS011;4899;42.644;23.366;2023-04-06T14:36:27;8.17;;;6.90;;
9720;SDS011;4899;42.644;23.366;2023-04-06T14:38:54;6.60;;;5.77;;
9720;SDS011;4899;42.644;23.366;2023-04-06T14:41:22;7.83;;;7.13;;
9720;SDS011;4899;42.644;23.366;2023-04-06T14:43:48;7.60;;;6.80;;
9720;SDS011;4899;42.644;23.366;2023-04-06T14:46:14;7.10;;;6.40;;
9720;SDS011;4899;42.644;23.366;2023-04-06T14:48:43;7.83;;;7.03;;
9720;SDS011;4899;42.644;23.366;2023-04-06T14:51:10;8.27;;;7.47;;
9720;SDS011;4899;42.644;23.366;2023-04-06T14:53:35;8.40;;;7.60;;
9720;SDS011;4899;42.644;23.366;2023-04-06T14:56:01;8.20;;;7.30;;
9720;SDS011;4899;42.644;23.366;2023-04-06T14:58:27;7.20;;;6.50;;
9720;SDS011;4899;42.644;23.366;2023-04-06T15:00:56;6.77;;;6.17;;
9720;SDS011;4899;42.644;23.366;2023-04-06T15:03:29;7.87;;;6.57;;